createdAt,value
2018-03-03T00:01:15.001Z,54.92
2018-03-03T00:03:44.025Z,59.88
2018-03-03T00:06:12.170Z,54.13
2018-03-03T00:08:40.358Z,64.05
2018-03-03T00:11:08.515Z,48.78
2018-03-03T00:13:36.666Z,53.97
2018-03-03T00:16:05.614Z,51.92
2018-03-03T00:18:33.766Z,39.45
2018-03-03T00:21:01.906Z,53.42
2018-03-03T00:23:30.841Z,55.08
2018-03-03T00:25:58.986Z,49.08
2018-03-03T00:28:27.129Z,62.05
2018-03-03T00:30:55.286Z,51.22
2018-03-03T00:33:23.528Z,64.62
2018-03-03T00:35:51.675Z,51.05
2018-03-03T00:38:19.879Z,45.90
2018-03-03T00:40:48.225Z,46.78
2018-03-03T00:43:16.371Z,45.47
2018-03-03T00:45:44.526Z,49.20
2018-03-03T00:48:12.674Z,49.72
2018-03-03T00:50:40.835Z,46.15
2018-03-03T00:53:09.430Z,45.83
2018-03-03T00:55:37.573Z,49.88
2018-03-03T00:58:05.714Z,52.03
2018-03-03T01:00:33.879Z,50.00
2018-03-03T01:03:02.032Z,57.15
2018-03-03T01:05:30.198Z,52.53
2018-03-03T01:07:58.389Z,57.72
2018-03-03T01:10:26.635Z,50.58
2018-03-03T01:12:54.778Z,44.47
2018-03-03T01:15:23.711Z,62.00
2018-03-03T01:17:51.869Z,46.17
2018-03-03T01:20:20.139Z,42.67
2018-03-03T01:22:48.298Z,50.50
2018-03-03T01:25:16.465Z,37.00
2018-03-03T01:27:44.622Z,57.08
2018-03-03T01:30:13.557Z,39.75
2018-03-03T01:32:41.725Z,52.67
2018-03-03T01:35:09.892Z,49.28
2018-03-03T01:37:38.067Z,45.10
2018-03-03T01:40:06.256Z,51.20
2018-03-03T01:42:34.414Z,50.08
2018-03-03T01:45:02.579Z,44.90
2018-03-03T01:47:30.726Z,46.97
2018-03-03T01:49:59.741Z,52.22
2018-03-03T01:52:27.931Z,45.53
2018-03-03T01:54:56.076Z,51.03
2018-03-03T01:57:24.226Z,47.90
2018-03-03T01:59:52.406Z,58.78
2018-03-03T02:02:21.318Z,51.92
2018-03-03T02:04:49.457Z,54.25
2018-03-03T02:07:17.638Z,45.78
2018-03-03T02:09:46.549Z,54.20
2018-03-03T02:12:15.465Z,56.72
2018-03-03T02:14:43.627Z,49.40
2018-03-03T02:17:11.802Z,49.63
2018-03-03T02:19:40.084Z,51.08
2018-03-03T02:22:08.242Z,43.97
2018-03-03T02:24:36.418Z,45.75
2018-03-03T02:27:04.566Z,60.20
2018-03-03T02:29:33.469Z,51.85
2018-03-03T02:32:01.650Z,48.60
2018-03-03T02:34:29.795Z,39.97
2018-03-03T02:36:58.705Z,49.17
2018-03-03T02:39:26.878Z,57.03
2018-03-03T02:41:55.018Z,48.95
2018-03-03T02:44:23.166Z,49.38
2018-03-03T02:46:51.332Z,50.65
2018-03-03T02:49:19.474Z,55.97
2018-03-03T02:51:47.632Z,48.15
2018-03-03T02:54:16.548Z,45.08
2018-03-03T02:56:44.713Z,47.08
2018-03-03T02:59:12.999Z,53.83
2018-03-03T03:01:41.178Z,46.33
2018-03-03T03:04:09.332Z,47.58
2018-03-03T03:06:37.498Z,55.53
2018-03-03T03:09:05.646Z,57.55
2018-03-03T03:11:33.831Z,50.72
2018-03-03T03:14:02.741Z,49.97
2018-03-03T03:16:30.898Z,50.88
2018-03-03T03:18:59.066Z,47.58
2018-03-03T03:21:28.341Z,41.28
2018-03-03T03:23:56.487Z,46.80
2018-03-03T03:26:24.660Z,52.15
2018-03-03T03:28:52.805Z,48.47
2018-03-03T03:31:20.992Z,48.60
2018-03-03T03:33:49.185Z,57.75
2018-03-03T03:36:17.325Z,54.13
2018-03-03T03:38:45.469Z,49.17
2018-03-03T03:41:14.397Z,48.00
2018-03-03T03:43:42.706Z,54.28
2018-03-03T03:46:10.853Z,45.50
2018-03-03T03:48:39.341Z,49.58
2018-03-03T03:51:07.481Z,52.58
2018-03-03T03:53:35.670Z,59.65
2018-03-03T03:56:03.941Z,52.65
2018-03-03T03:58:32.103Z,48.80
2018-03-03T04:01:00.289Z,54.08
2018-03-03T04:03:28.451Z,50.35
2018-03-03T04:05:56.590Z,44.05
2018-03-03T04:08:25.537Z,48.60
2018-03-03T04:10:53.983Z,49.47
2018-03-03T04:13:22.126Z,59.97
2018-03-03T04:15:50.289Z,52.33
2018-03-03T04:18:18.438Z,48.92
2018-03-03T04:20:46.594Z,45.00
2018-03-03T04:23:14.782Z,51.88
2018-03-03T04:25:42.931Z,42.30
2018-03-03T04:28:11.071Z,50.33
2018-03-03T04:30:39.999Z,42.13
2018-03-03T04:33:08.149Z,47.85
2018-03-03T04:35:36.325Z,48.47
2018-03-03T04:38:04.466Z,46.67
2018-03-03T04:40:32.602Z,54.88
2018-03-03T04:43:00.785Z,41.67
2018-03-03T04:45:28.929Z,49.83
2018-03-03T04:47:57.945Z,41.85
2018-03-03T04:50:26.117Z,44.78
2018-03-03T04:52:54.262Z,45.25
2018-03-03T04:55:22.401Z,51.75
2018-03-03T04:57:51.329Z,42.42
2018-03-03T05:00:25.138Z,50.00
2018-03-03T05:06:05.674Z,49.55
2018-03-03T05:08:39.464Z,42.92
2018-03-03T05:11:17.402Z,44.17
2018-03-03T05:13:46.319Z,54.58
2018-03-03T05:16:20.013Z,35.30
2018-03-03T05:21:55.047Z,50.78
2018-03-03T05:24:30.338Z,53.63
2018-03-03T05:27:04.086Z,43.45
2018-03-03T05:29:38.521Z,39.75
2018-03-03T05:32:12.145Z,52.20
2018-03-03T05:34:44.801Z,39.95
2018-03-03T05:37:18.497Z,43.87
2018-03-03T05:40:01.526Z,46.20
2018-03-03T05:42:35.347Z,58.47
2018-03-03T05:45:09.099Z,49.03
2018-03-03T05:50:59.985Z,48.87
2018-03-03T05:53:33.723Z,41.22
2018-03-03T05:56:02.717Z,43.25
2018-03-03T06:01:33.161Z,51.78
2018-03-03T06:04:07.097Z,49.30
2018-03-03T06:09:43.477Z,49.10
2018-03-03T06:12:12.391Z,51.10
2018-03-03T06:14:40.538Z,41.30
2018-03-03T06:17:09.470Z,47.53
2018-03-03T06:19:37.634Z,49.08
2018-03-03T06:22:05.792Z,44.38
2018-03-03T06:24:33.998Z,41.35
2018-03-03T06:27:02.140Z,43.35
2018-03-03T06:29:30.282Z,51.80
2018-03-03T06:31:59.213Z,51.72
2018-03-03T06:34:27.356Z,46.95
2018-03-03T06:36:56.265Z,43.40
2018-03-03T06:39:24.421Z,44.50
2018-03-03T06:41:52.598Z,62.60
2018-03-03T06:44:20.753Z,53.85
2018-03-03T06:46:49.659Z,48.58
2018-03-03T06:49:17.834Z,58.35
2018-03-03T06:51:46.030Z,46.13
2018-03-03T06:54:14.170Z,54.85
2018-03-03T06:56:43.109Z,48.78
2018-03-03T06:59:11.272Z,46.28
2018-03-03T07:01:39.411Z,52.25
2018-03-03T07:04:07.574Z,57.72
2018-03-03T07:06:36.488Z,47.50
2018-03-03T07:09:04.654Z,48.17
2018-03-03T07:11:32.844Z,53.42
2018-03-03T07:14:00.978Z,45.75
2018-03-03T07:16:29.922Z,40.88
2018-03-03T07:18:58.066Z,54.85
2018-03-03T07:21:27.050Z,50.25
2018-03-03T07:23:55.225Z,45.17
2018-03-03T07:26:23.369Z,53.65
2018-03-03T07:28:51.529Z,60.67
2018-03-03T07:31:19.781Z,50.65
2018-03-03T07:33:47.937Z,42.08
2018-03-03T07:36:16.083Z,54.20
2018-03-03T07:38:44.285Z,45.95
2018-03-03T07:41:12.514Z,53.38
2018-03-03T07:43:41.458Z,55.30
2018-03-03T07:46:09.621Z,47.40
2018-03-03T07:48:37.782Z,51.53
2018-03-03T07:51:06.574Z,48.22
2018-03-03T07:53:34.729Z,59.38
2018-03-03T07:56:03.489Z,85.18
2018-03-03T08:01:28.333Z,56.40
2018-03-03T08:03:56.497Z,43.90
2018-03-03T08:06:25.408Z,47.25
2018-03-03T08:08:53.560Z,57.65
2018-03-03T08:11:21.714Z,57.00
2018-03-03T08:13:50.625Z,48.78
2018-03-03T08:16:18.785Z,40.10
2018-03-03T08:18:48.679Z,45.15
2018-03-03T08:21:16.850Z,55.10
2018-03-03T08:23:44.994Z,48.15
2018-03-03T08:26:13.142Z,47.75
2018-03-03T08:28:41.298Z,43.72
2018-03-03T08:31:10.213Z,50.92
2018-03-03T08:33:38.375Z,49.53
2018-03-03T08:36:06.546Z,45.85
2018-03-03T08:38:34.693Z,40.65
2018-03-03T08:41:03.599Z,42.25
2018-03-03T08:43:31.762Z,38.78
2018-03-03T08:46:00.686Z,40.83
2018-03-03T08:48:28.825Z,45.63
2018-03-03T08:50:57.758Z,43.83
2018-03-03T08:53:25.901Z,37.60
2018-03-03T08:55:54.046Z,36.53
2018-03-03T08:58:22.993Z,36.72
2018-03-03T09:00:51.135Z,36.65
2018-03-03T09:03:19.282Z,44.15
2018-03-03T09:05:47.437Z,43.67
2018-03-03T09:08:15.614Z,37.20
2018-03-03T09:10:43.762Z,38.00
2018-03-03T09:13:11.905Z,39.03
2018-03-03T09:15:40.350Z,45.12
2018-03-03T09:18:08.574Z,54.13
2018-03-03T09:20:36.749Z,63.22
2018-03-03T09:23:05.043Z,37.30
2018-03-03T09:25:33.184Z,48.25
2018-03-03T09:28:01.378Z,39.72
2018-03-03T09:30:29.534Z,43.28
2018-03-03T09:32:57.677Z,48.72
2018-03-03T09:35:26.606Z,47.83
2018-03-03T09:37:54.751Z,45.35
2018-03-03T09:40:22.890Z,48.87
2018-03-03T09:42:51.058Z,95.38
2018-03-03T09:45:19.202Z,79.57
2018-03-03T09:47:47.363Z,42.83
2018-03-03T09:50:15.535Z,37.47
2018-03-03T09:52:43.682Z,38.97
2018-03-03T09:55:12.600Z,34.17
2018-03-03T09:57:40.749Z,42.03
2018-03-03T10:00:08.890Z,40.97
2018-03-03T10:02:37.045Z,41.63
2018-03-03T10:05:05.195Z,46.03
2018-03-03T10:07:33.325Z,35.65
2018-03-03T10:10:02.355Z,45.70
2018-03-03T10:12:30.730Z,42.50
2018-03-03T10:14:58.913Z,43.00
2018-03-03T10:17:27.278Z,42.08
2018-03-03T10:19:55.409Z,50.17
2018-03-03T10:22:24.340Z,45.30
2018-03-03T10:24:52.533Z,55.85
2018-03-03T10:27:20.673Z,45.45
2018-03-03T10:29:48.807Z,42.67
2018-03-03T10:32:16.957Z,44.78
2018-03-03T10:34:45.923Z,39.63
2018-03-03T10:37:14.069Z,49.00
2018-03-03T10:39:42.970Z,45.60
2018-03-03T10:42:11.142Z,48.13
2018-03-03T10:44:39.278Z,48.33
2018-03-03T10:47:07.414Z,50.92
2018-03-03T10:49:35.576Z,45.78
2018-03-03T10:52:03.706Z,42.03
2018-03-03T10:54:32.610Z,49.58
2018-03-03T10:57:02.258Z,44.42
2018-03-03T10:59:30.393Z,41.50
2018-03-03T11:01:58.530Z,52.28
2018-03-03T11:04:26.677Z,47.35
2018-03-03T11:06:54.810Z,39.67
2018-03-03T11:09:22.958Z,43.47
2018-03-03T11:11:51.902Z,39.95
2018-03-03T11:14:20.063Z,39.30
2018-03-03T11:16:48.230Z,53.70
2018-03-03T11:19:16.366Z,43.80
2018-03-03T11:21:45.282Z,72.95
2018-03-03T11:24:13.438Z,51.00
2018-03-03T11:26:42.578Z,58.05
2018-03-03T11:29:10.713Z,55.95
2018-03-03T11:31:39.645Z,51.75
2018-03-03T11:34:07.826Z,55.00
2018-03-03T11:36:35.981Z,43.67
2018-03-03T11:39:04.141Z,42.27
2018-03-03T11:41:32.282Z,42.83
2018-03-03T11:44:01.173Z,49.27
2018-03-03T11:46:30.108Z,55.73
2018-03-03T11:48:58.243Z,42.73
2018-03-03T11:51:27.151Z,44.77
2018-03-03T11:53:55.325Z,56.50
2018-03-03T11:56:23.515Z,47.33
2018-03-03T11:58:51.690Z,45.53
2018-03-03T12:01:19.833Z,56.17
2018-03-03T12:03:47.970Z,52.70
2018-03-03T12:06:16.207Z,41.13
2018-03-03T12:08:44.340Z,56.27
2018-03-03T12:11:13.242Z,48.93
2018-03-03T12:13:42.155Z,37.17
2018-03-03T12:16:10.328Z,47.73
2018-03-03T12:18:38.466Z,44.83
2018-03-03T12:21:07.369Z,53.80
2018-03-03T12:23:35.538Z,48.27
2018-03-03T12:26:04.453Z,39.20
2018-03-03T12:28:32.614Z,53.40
2018-03-03T12:31:00.769Z,45.47
2018-03-03T12:33:29.669Z,47.27
2018-03-03T12:35:57.910Z,38.03
2018-03-03T12:38:26.090Z,38.83
2018-03-03T12:40:54.256Z,48.27
2018-03-03T12:43:22.389Z,38.40
2018-03-03T12:45:50.522Z,44.73
2018-03-03T12:48:19.960Z,41.40
2018-03-03T12:50:48.262Z,45.70
2018-03-03T12:53:16.407Z,36.73
2018-03-03T12:55:44.557Z,40.50
2018-03-03T12:58:12.754Z,40.50
2018-03-03T13:00:40.910Z,43.57
2018-03-03T13:03:09.050Z,36.97
2018-03-03T13:05:37.970Z,38.87
2018-03-03T13:08:06.164Z,35.00
2018-03-03T13:10:34.298Z,41.90
2018-03-03T13:13:03.223Z,35.77
2018-03-03T13:15:31.355Z,36.73
2018-03-03T13:18:00.274Z,34.33
2018-03-03T13:20:28.410Z,38.90
2018-03-03T13:22:56.545Z,40.17
2018-03-03T13:25:24.706Z,33.20
2018-03-03T13:27:52.851Z,39.00
2018-03-03T13:30:20.991Z,32.90
2018-03-03T13:32:49.166Z,32.17
2018-03-03T13:35:17.298Z,42.20
2018-03-03T13:37:45.445Z,43.33
2018-03-03T13:40:13.608Z,39.43
2018-03-03T13:42:42.510Z,48.40
2018-03-03T13:45:11.162Z,71.97
2018-03-03T13:47:39.338Z,53.90
2018-03-03T13:50:07.475Z,48.40
2018-03-03T13:52:35.634Z,43.43
2018-03-03T13:55:03.798Z,35.63
2018-03-03T13:57:31.930Z,41.23
2018-03-03T14:00:00.844Z,43.50
2018-03-03T14:02:29.627Z,39.67
2018-03-03T14:04:57.773Z,44.50
2018-03-03T14:07:25.909Z,49.83
2018-03-03T14:09:54.059Z,37.33
2018-03-03T14:12:22.230Z,40.33
2018-03-03T14:14:50.362Z,46.77
2018-03-03T14:17:18.502Z,43.37
2018-03-03T14:19:46.657Z,39.67
2018-03-03T14:22:14.802Z,40.33
2018-03-03T14:24:43.738Z,41.20
2018-03-03T14:27:11.881Z,44.00
2018-03-03T14:29:40.039Z,38.73
2018-03-03T14:32:08.205Z,41.23
2018-03-03T14:34:37.138Z,38.10
2018-03-03T14:37:05.302Z,34.87
2018-03-03T14:39:33.561Z,38.70
2018-03-03T14:42:01.730Z,34.80
2018-03-03T14:44:29.865Z,37.00
2018-03-03T14:46:58.000Z,38.70
2018-03-03T14:49:26.263Z,39.00
2018-03-03T14:51:54.403Z,38.10
2018-03-03T14:54:23.313Z,45.83
2018-03-03T14:56:51.482Z,38.87
2018-03-03T14:59:19.682Z,40.90
2018-03-03T15:01:47.818Z,37.53
2018-03-03T15:04:16.742Z,44.83
2018-03-03T15:06:44.906Z,38.77
2018-03-03T15:09:13.038Z,44.40
2018-03-03T15:11:41.977Z,43.63
2018-03-03T15:14:10.139Z,58.20
2018-03-03T15:16:38.289Z,40.30
2018-03-03T15:19:07.186Z,55.03
2018-03-03T15:21:35.422Z,44.10
2018-03-03T15:24:03.668Z,42.50
2018-03-03T15:26:31.814Z,46.40
2018-03-03T15:29:00.011Z,63.63
2018-03-03T15:31:28.185Z,42.83
2018-03-03T15:33:56.323Z,45.23
2018-03-03T15:36:24.781Z,48.03
2018-03-03T15:38:53.001Z,42.27
2018-03-03T15:41:21.138Z,43.50
2018-03-03T15:43:50.059Z,48.00
2018-03-03T15:46:18.200Z,50.90
2018-03-03T15:48:47.133Z,60.97
2018-03-03T15:51:15.279Z,51.00
2018-03-03T15:53:43.415Z,41.33
2018-03-03T15:56:11.562Z,50.20
2018-03-03T15:58:39.719Z,50.03
2018-03-03T16:01:07.858Z,54.27
2018-03-03T16:03:36.784Z,45.13
2018-03-03T16:06:04.930Z,44.93
2018-03-03T16:08:33.089Z,59.22
2018-03-03T16:11:02.016Z,45.03
2018-03-03T16:13:30.150Z,49.80
2018-03-03T16:15:58.298Z,56.47
2018-03-03T16:18:26.453Z,44.47
2018-03-03T16:20:54.586Z,53.30
2018-03-03T16:23:22.758Z,46.70
2018-03-03T16:25:50.950Z,51.35
2018-03-03T16:28:19.087Z,50.53
2018-03-03T16:30:47.241Z,47.65
2018-03-03T16:33:15.375Z,64.80
2018-03-03T16:35:43.537Z,57.50
2018-03-03T16:38:11.671Z,48.33
2018-03-03T16:40:40.589Z,57.25
2018-03-03T16:43:08.754Z,57.67
2018-03-03T16:45:36.890Z,81.90
2018-03-03T16:48:05.117Z,96.70
2018-03-03T16:50:33.298Z,63.60
2018-03-03T16:53:01.437Z,46.28
2018-03-03T16:55:29.638Z,39.92
2018-03-03T16:57:57.794Z,43.90
2018-03-03T17:00:25.982Z,48.85
2018-03-03T17:02:54.173Z,57.10
2018-03-03T17:05:22.319Z,148.98
2018-03-03T17:07:50.459Z,119.57
2018-03-03T17:10:19.366Z,112.15
2018-03-03T17:12:47.680Z,94.32
2018-03-03T17:15:15.837Z,84.53
2018-03-03T17:17:43.982Z,76.72
2018-03-03T17:20:13.189Z,58.15
2018-03-03T17:22:41.334Z,53.78
2018-03-03T17:25:09.474Z,53.33
2018-03-03T17:27:37.642Z,49.47
2018-03-03T17:30:05.795Z,59.42
2018-03-03T17:32:34.034Z,49.85
2018-03-03T17:35:02.972Z,59.45
2018-03-03T17:37:31.114Z,49.30
2018-03-03T17:39:59.982Z,51.25
2018-03-03T17:42:28.927Z,46.85
2018-03-03T17:44:57.100Z,46.33
2018-03-03T17:47:25.249Z,44.38
2018-03-03T17:49:54.117Z,46.83
2018-03-03T17:52:23.037Z,40.40
2018-03-03T17:54:51.182Z,38.72
2018-03-03T17:57:20.118Z,55.10
2018-03-03T17:59:48.276Z,58.87
2018-03-03T18:02:16.450Z,48.40
2018-03-03T18:04:44.626Z,46.17
2018-03-03T18:07:12.808Z,52.80
2018-03-03T18:09:40.977Z,41.05
2018-03-03T18:12:09.115Z,50.20
2018-03-03T18:14:37.294Z,41.55
2018-03-03T18:17:05.442Z,47.60
2018-03-03T18:19:35.990Z,41.83
2018-03-03T18:22:04.159Z,53.80
2018-03-03T18:24:37.161Z,53.47
2018-03-03T18:27:05.338Z,44.88
2018-03-03T18:29:33.481Z,49.55
2018-03-03T18:32:02.554Z,40.28
2018-03-03T18:34:30.738Z,39.17
2018-03-03T18:36:58.905Z,32.50
2018-03-03T18:39:27.052Z,43.03
2018-03-03T18:41:55.220Z,41.88
2018-03-03T18:44:23.387Z,41.55
2018-03-03T18:46:51.581Z,32.40
2018-03-03T18:49:19.722Z,42.17
2018-03-03T18:51:47.865Z,46.95
2018-03-03T18:54:16.809Z,43.17
2018-03-03T18:56:44.965Z,46.33
2018-03-03T18:59:13.122Z,45.22
2018-03-03T19:01:41.284Z,40.67
2018-03-03T19:04:09.449Z,37.88
2018-03-03T19:06:37.597Z,46.35
2018-03-03T19:09:05.776Z,46.97
2018-03-03T19:11:34.813Z,40.10
2018-03-03T19:14:03.087Z,42.53
2018-03-03T19:16:31.282Z,38.47
2018-03-03T19:18:59.498Z,38.83
2018-03-03T19:21:28.440Z,42.95
2018-03-03T19:23:57.508Z,36.75
2018-03-03T19:26:25.692Z,38.35
2018-03-03T19:28:53.874Z,42.85
2018-03-03T19:31:22.035Z,43.42
2018-03-03T19:33:50.203Z,45.75
2018-03-03T19:36:18.402Z,38.60
2018-03-03T19:38:46.574Z,40.67
2018-03-03T19:41:14.841Z,39.50
2018-03-03T19:43:43.010Z,43.53
2018-03-03T19:46:11.155Z,36.08
2018-03-03T19:48:39.302Z,42.92
2018-03-03T19:51:07.483Z,42.05
2018-03-03T19:53:36.421Z,37.88
2018-03-03T19:56:04.606Z,40.72
2018-03-03T19:58:32.784Z,39.63
2018-03-03T20:01:00.943Z,45.88
2018-03-03T20:03:29.090Z,42.70
2018-03-03T20:05:57.270Z,37.78
2018-03-03T20:08:25.414Z,44.67
2018-03-03T20:10:54.327Z,41.95
2018-03-03T20:13:22.708Z,36.15
2018-03-03T20:15:50.853Z,34.30
2018-03-03T20:18:19.767Z,42.90
2018-03-03T20:20:47.938Z,36.33
2018-03-03T20:23:16.087Z,44.35
2018-03-03T20:25:44.993Z,37.72
2018-03-03T20:28:13.158Z,36.40
2018-03-03T20:30:42.121Z,36.17
2018-03-03T20:33:10.347Z,33.10
2018-03-03T20:35:38.611Z,35.65
2018-03-03T20:38:06.817Z,37.90
2018-03-03T20:40:34.966Z,34.05
2018-03-03T20:43:03.120Z,40.03
2018-03-03T20:45:32.066Z,36.83
2018-03-03T20:48:00.233Z,44.13
2018-03-03T20:50:28.373Z,44.95
2018-03-03T20:52:56.550Z,44.58
2018-03-03T20:55:24.694Z,52.30
2018-03-03T20:57:53.601Z,46.80
2018-03-03T21:00:21.772Z,50.50
2018-03-03T21:02:49.968Z,40.33
2018-03-03T21:05:18.856Z,42.92
2018-03-03T21:07:47.044Z,36.50
2018-03-03T21:10:15.195Z,42.95
2018-03-03T21:12:43.368Z,39.95
2018-03-03T21:15:11.531Z,35.38
2018-03-03T21:17:39.678Z,43.60
2018-03-03T21:20:08.596Z,38.50
2018-03-03T21:22:36.757Z,43.55
2018-03-03T21:25:04.936Z,43.75
2018-03-03T21:27:33.079Z,43.58
2018-03-03T21:30:01.225Z,42.35
2018-03-03T21:32:29.381Z,39.22
2018-03-03T21:34:57.552Z,66.28
2018-03-03T21:37:25.820Z,86.03
2018-03-03T21:39:53.966Z,97.93
2018-03-03T21:42:22.120Z,111.95
2018-03-03T21:44:51.075Z,161.07
2018-03-03T21:47:19.218Z,83.68
2018-03-03T21:49:47.362Z,103.55
2018-03-03T21:52:16.302Z,86.47
2018-03-03T21:54:44.446Z,70.57
2018-03-03T21:57:12.590Z,78.95
2018-03-03T21:59:41.531Z,127.97
2018-03-03T22:02:09.678Z,95.95
2018-03-03T22:04:37.823Z,96.60
2018-03-03T22:07:05.998Z,78.65
2018-03-03T22:09:34.947Z,70.60
2018-03-03T22:12:03.114Z,55.75
2018-03-03T22:14:31.287Z,61.10
2018-03-03T22:16:59.435Z,69.95
2018-03-03T22:19:27.593Z,93.18
2018-03-03T22:21:56.511Z,82.00
2018-03-03T22:24:24.683Z,74.35
2018-03-03T22:26:52.859Z,91.53
2018-03-03T22:29:21.002Z,81.57
2018-03-03T22:31:49.954Z,68.95
2018-03-03T22:34:18.098Z,68.57
2018-03-03T22:36:46.258Z,65.70
2018-03-03T22:39:14.431Z,66.12
2018-03-03T22:41:42.582Z,47.20
2018-03-03T22:44:11.496Z,50.65
2018-03-03T22:46:39.675Z,49.65
2018-03-03T22:49:07.821Z,48.15
2018-03-03T22:51:36.740Z,53.72
2018-03-03T22:54:04.915Z,57.05
2018-03-03T22:56:33.063Z,52.53
2018-03-03T22:59:01.266Z,57.92
2018-03-03T23:01:29.437Z,49.17
2018-03-03T23:03:57.578Z,49.83
2018-03-03T23:06:25.722Z,37.40
2018-03-03T23:08:53.889Z,46.50
2018-03-03T23:11:22.034Z,48.47
2018-03-03T23:13:50.189Z,48.65
2018-03-03T23:16:18.352Z,59.65
2018-03-03T23:18:46.493Z,39.30
2018-03-03T23:21:15.441Z,49.47
2018-03-03T23:23:43.591Z,43.60
2018-03-03T23:26:11.734Z,53.55
2018-03-03T23:28:40.682Z,52.25
2018-03-03T23:31:08.840Z,41.55
2018-03-03T23:33:36.987Z,42.92
2018-03-03T23:36:05.162Z,48.65
2018-03-03T23:38:33.310Z,48.10
2018-03-03T23:41:02.222Z,42.75
2018-03-03T23:43:30.391Z,52.72
2018-03-03T23:45:58.543Z,57.70
2018-03-03T23:48:26.687Z,49.58
2018-03-03T23:50:54.841Z,60.83
2018-03-03T23:53:22.982Z,52.97
2018-03-03T23:55:51.181Z,44.05
2018-03-03T23:58:19.334Z,50.60
